createdAt,value
2019-06-08T00:00:37.785Z,97908.41
2019-06-08T00:03:01.341Z,97908.67
2019-06-08T00:05:24.953Z,97899.23
2019-06-08T00:07:48.623Z,97889.22
2019-06-08T00:10:13.203Z,97911.06
2019-06-08T00:12:37.111Z,97926.15
2019-06-08T00:15:00.677Z,97949.35
2019-06-08T00:17:37.250Z,97956.74
2019-06-08T00:19:49.530Z,97957.64
2019-06-08T00:22:15.768Z,97954.84
2019-06-08T00:24:40.649Z,97941.72
2019-06-08T00:27:08.695Z,97955.86
2019-06-08T00:29:32.751Z,97946.29
2019-06-08T00:31:57.251Z,97950.02
2019-06-08T00:34:26.124Z,97949.23
2019-06-08T00:36:54.158Z,97954.84
2019-06-08T00:39:18.871Z,97955.67
2019-06-08T00:41:42.561Z,97953.07
2019-06-08T00:44:07.595Z,97936.30
2019-06-08T00:46:32.940Z,97930.75
2019-06-08T00:48:57.108Z,97930.46
2019-06-08T00:51:21.056Z,97929.47
2019-06-08T00:53:45.040Z,97928.87
2019-06-08T00:56:08.681Z,97921.45
2019-06-08T00:58:32.846Z,97937.05
2019-06-08T01:00:58.709Z,97940.20
2019-06-08T01:03:23.746Z,97938.14
2019-06-08T01:05:47.470Z,97933.88
2019-06-08T01:08:12.190Z,97936.62
2019-06-08T01:10:35.757Z,97932.56
2019-06-08T01:12:59.611Z,97934.66
2019-06-08T01:15:32.220Z,97936.55
2019-06-08T01:18:02.168Z,97930.10
2019-06-08T01:20:17.223Z,97933.58
2019-06-08T01:22:40.791Z,97942.05
2019-06-08T01:25:05.767Z,97946.53
2019-06-08T01:27:30.142Z,97958.16
2019-06-08T01:29:53.757Z,97943.97
2019-06-08T01:32:17.409Z,97933.34
2019-06-08T01:34:43.081Z,97928.11
2019-06-08T01:37:07.561Z,97929.79
2019-06-08T01:39:33.061Z,97930.54
2019-06-08T01:41:56.891Z,97932.30
2019-06-08T01:44:23.560Z,97928.03
2019-06-08T01:46:47.179Z,97920.50
2019-06-08T01:49:10.733Z,97918.45
2019-06-08T01:51:34.328Z,97903.84
2019-06-08T01:53:57.920Z,97892.38
2019-06-08T01:56:22.840Z,97898.77
2019-06-08T01:58:47.724Z,97906.53
2019-06-08T02:01:12.225Z,97929.55
2019-06-08T02:03:36.061Z,97932.77
2019-06-08T02:06:02.844Z,97921.34
2019-06-08T02:10:57.684Z,97932.25
2019-06-08T02:13:21.274Z,97943.24
2019-06-08T02:15:44.808Z,97930.98
2019-06-08T02:18:08.404Z,97944.41
2019-06-08T02:20:32.990Z,97935.95
2019-06-08T02:22:56.667Z,97943.63
2019-06-08T02:25:27.299Z,97959.86
2019-06-08T02:27:51.064Z,97962.20
2019-06-08T02:30:16.940Z,97964.52
2019-06-08T02:32:40.674Z,97965.53
2019-06-08T02:35:06.302Z,97971.61
2019-06-08T02:37:30.823Z,97981.27
2019-06-08T02:39:56.112Z,97981.75
2019-06-08T02:42:20.262Z,97986.34
2019-06-08T02:44:45.515Z,97984.51
2019-06-08T02:47:09.067Z,97997.52
2019-06-08T02:49:33.211Z,97981.49
2019-06-08T02:52:05.880Z,98003.69
2019-06-08T02:54:32.954Z,97992.09
2019-06-08T02:56:58.129Z,98004.20
2019-06-08T02:59:23.016Z,98000.88
2019-06-08T03:01:48.399Z,97996.66
2019-06-08T03:04:13.115Z,98008.97
2019-06-08T03:06:41.171Z,97999.08
2019-06-08T03:09:07.129Z,97995.14
2019-06-08T03:11:34.829Z,98006.70
2019-06-08T03:14:00.354Z,98013.50
2019-06-08T03:16:24.300Z,98021.26
2019-06-08T03:18:47.885Z,98026.43
2019-06-08T03:21:11.430Z,98025.52
2019-06-08T03:23:36.217Z,98013.22
2019-06-08T03:26:08.850Z,98021.09
2019-06-08T03:28:37.128Z,98026.20
2019-06-08T03:31:03.421Z,98028.94
2019-06-08T03:33:29.378Z,98023.27
2019-06-08T03:35:57.875Z,98033.92
2019-06-08T03:38:19.216Z,98041.71
2019-06-08T03:40:45.149Z,98045.16
2019-06-08T03:43:08.112Z,98054.57
2019-06-08T03:45:31.700Z,98053.20
2019-06-08T03:47:55.904Z,98057.34
2019-06-08T03:50:19.930Z,98082.38
2019-06-08T03:52:44.155Z,98067.27
2019-06-08T03:55:09.374Z,98061.86
2019-06-08T03:57:33.074Z,98040.45
2019-06-08T03:59:58.073Z,98056.33
2019-06-08T04:02:23.801Z,98047.86
2019-06-08T04:04:47.443Z,98052.41
2019-06-08T04:07:11.153Z,98056.13
2019-06-08T04:09:34.720Z,98058.94
2019-06-08T04:11:58.277Z,98049.06
2019-06-08T04:14:22.048Z,98038.26
2019-06-08T04:16:47.031Z,98061.31
2019-06-08T04:19:10.764Z,98059.15
2019-06-08T04:21:34.315Z,98037.19
2019-06-08T04:23:57.835Z,98033.53
2019-06-08T04:26:21.402Z,98029.98
2019-06-08T04:28:47.203Z,98037.70
2019-06-08T04:31:10.929Z,98039.85
2019-06-08T04:33:35.645Z,98049.75
2019-06-08T04:36:00.243Z,98061.23
2019-06-08T04:38:23.838Z,98068.59
2019-06-08T04:40:48.494Z,98079.04
2019-06-08T04:43:12.687Z,98072.84
2019-06-08T04:45:36.259Z,98088.42
2019-06-08T04:47:59.801Z,98101.36
2019-06-08T04:50:24.326Z,98103.89
2019-06-08T04:52:49.975Z,98116.27
2019-06-08T04:55:13.947Z,98123.30
2019-06-08T04:57:39.313Z,98112.39
2019-06-08T05:00:11.991Z,98105.06
2019-06-08T05:02:28.212Z,98123.38
2019-06-08T05:04:51.788Z,98118.29
2019-06-08T05:07:15.637Z,98100.24
2019-06-08T05:09:41.100Z,98110.76
2019-06-08T05:12:05.175Z,98116.43
2019-06-08T05:14:28.860Z,98126.45
2019-06-08T05:16:52.423Z,98144.11
2019-06-08T05:19:15.963Z,98159.92
2019-06-08T05:21:39.643Z,98179.98
2019-06-08T05:24:03.152Z,98184.36
2019-06-08T05:26:26.718Z,98197.36
2019-06-08T05:28:50.281Z,98194.41
2019-06-08T05:31:13.876Z,98211.42
2019-06-08T05:33:37.510Z,98210.13
2019-06-08T05:36:08.194Z,98216.82
2019-06-08T05:38:32.915Z,98208.45
2019-06-08T05:40:58.077Z,98224.41
2019-06-08T05:43:22.617Z,98226.70
2019-06-08T05:45:46.337Z,98222.44
2019-06-08T05:48:09.908Z,98221.44
2019-06-08T05:50:33.591Z,98228.29
2019-06-08T05:52:57.124Z,98238.64
2019-06-08T05:55:21.271Z,98218.13
2019-06-08T05:57:46.208Z,98208.86
2019-06-08T06:00:12.089Z,98210.50
2019-06-08T06:02:37.845Z,98215.02
2019-06-08T06:05:06.952Z,98215.39
2019-06-08T06:07:32.111Z,98233.11
2019-06-08T06:09:55.863Z,98227.38
2019-06-08T06:12:19.723Z,98225.25
2019-06-08T06:14:43.438Z,98239.65
2019-06-08T06:17:07.298Z,98233.36
2019-06-08T06:19:31.083Z,98222.27
2019-06-08T06:21:54.944Z,98233.99
2019-06-08T06:24:18.573Z,98232.09
2019-06-08T06:26:43.202Z,98240.58
2019-06-08T06:29:06.858Z,98243.13
2019-06-08T06:31:30.434Z,98228.99
2019-06-08T06:33:54.981Z,98240.08
2019-06-08T06:36:19.669Z,98236.84
2019-06-08T06:38:44.084Z,98249.32
2019-06-08T06:41:07.844Z,98256.97
2019-06-08T06:43:31.370Z,98263.71
2019-06-08T06:45:55.808Z,98267.02
2019-06-08T06:48:23.415Z,98267.98
2019-06-08T06:50:46.697Z,98278.09
2019-06-08T06:53:11.855Z,98277.67
2019-06-08T06:55:43.242Z,98278.59
2019-06-08T06:58:06.791Z,98281.95
2019-06-08T07:00:32.132Z,98279.66
2019-06-08T07:02:55.700Z,98284.64
2019-06-08T07:05:22.600Z,98277.98
2019-06-08T07:07:48.177Z,98289.70
2019-06-08T07:10:13.637Z,98281.62
2019-06-08T07:12:38.586Z,98284.05
2019-06-08T07:15:04.280Z,98285.41
2019-06-08T07:17:28.215Z,98281.45
2019-06-08T07:19:52.621Z,98288.70
2019-06-08T07:22:17.434Z,98297.89
2019-06-08T07:24:41.524Z,98296.22
2019-06-08T07:27:08.137Z,98300.50
2019-06-08T07:29:32.115Z,98290.66
2019-06-08T07:31:56.040Z,98288.20
2019-06-08T07:34:20.438Z,98307.63
2019-06-08T07:36:45.347Z,98300.54
2019-06-08T07:39:09.315Z,98302.80
2019-06-08T07:41:33.345Z,98308.96
2019-06-08T07:43:58.534Z,98297.05
2019-06-08T07:46:22.631Z,98296.51
2019-06-08T07:48:48.017Z,98299.30
2019-06-08T07:51:12.051Z,98298.88
2019-06-08T07:53:36.972Z,98296.06
2019-06-08T07:56:03.563Z,98302.37
2019-06-08T07:58:29.854Z,98302.61
2019-06-08T08:00:54.652Z,98305.19
2019-06-08T08:03:19.730Z,98316.70
2019-06-08T08:05:46.003Z,98320.16
2019-06-08T08:08:14.219Z,98318.88
2019-06-08T08:10:40.376Z,98312.50
2019-06-08T08:13:05.099Z,98308.52
2019-06-08T08:15:36.118Z,98314.14
2019-06-08T08:18:02.379Z,98302.25
2019-06-08T08:20:27.774Z,98297.59
2019-06-08T08:23:01.838Z,98298.84
2019-06-08T08:25:24.613Z,98303.99
2019-06-08T08:27:50.747Z,98306.38
2019-06-08T08:30:17.286Z,98299.76
2019-06-08T08:32:42.666Z,98302.82
2019-06-08T08:35:08.844Z,98309.51
2019-06-08T08:37:32.854Z,98318.20
2019-06-08T08:39:59.647Z,98319.22
2019-06-08T08:42:22.301Z,98340.89
2019-06-08T08:44:51.075Z,98329.89
2019-06-08T08:47:18.776Z,98337.25
2019-06-08T08:49:51.110Z,98336.13
2019-06-08T08:52:17.672Z,98332.14
2019-06-08T08:54:42.950Z,98339.86
2019-06-08T08:57:08.381Z,98346.91
2019-06-08T08:59:39.590Z,98339.15
2019-06-08T09:02:11.426Z,98323.56
2019-06-08T09:04:37.872Z,98335.08
2019-06-08T09:07:05.555Z,98332.61
2019-06-08T09:09:28.907Z,98334.45
2019-06-08T09:11:55.993Z,98331.81
2019-06-08T09:14:21.115Z,98345.73
2019-06-08T09:16:48.181Z,98336.47
2019-06-08T09:19:11.867Z,98345.66
2019-06-08T09:21:38.228Z,98344.16
2019-06-08T09:24:04.117Z,98341.32
2019-06-08T09:26:31.304Z,98353.42
2019-06-08T09:28:56.079Z,98354.66
2019-06-08T09:31:20.274Z,98356.25
2019-06-08T09:33:55.146Z,98354.61
2019-06-08T09:36:11.865Z,98355.48
2019-06-08T09:38:38.538Z,98367.28
2019-06-08T09:41:04.012Z,98364.48
2019-06-08T09:43:28.906Z,98377.54
2019-06-08T09:45:55.348Z,98381.99
2019-06-08T09:48:22.045Z,98356.93
2019-06-08T09:50:48.665Z,98377.52
2019-06-08T09:53:23.878Z,98372.60
2019-06-08T09:55:41.454Z,98371.09
2019-06-08T09:58:11.057Z,98367.40
2019-06-08T10:00:31.957Z,98361.72
2019-06-08T10:02:59.628Z,98370.61
2019-06-08T10:05:21.763Z,98363.05
2019-06-08T10:07:48.673Z,98372.40
2019-06-08T10:10:13.270Z,98381.09
2019-06-08T10:12:40.938Z,98377.39
2019-06-08T10:15:09.136Z,98384.56
2019-06-08T10:17:33.298Z,98369.72
2019-06-08T10:20:00.468Z,98389.73
2019-06-08T10:22:23.165Z,98385.80
2019-06-08T10:24:49.030Z,98386.50
2019-06-08T10:27:18.542Z,98384.82
2019-06-08T10:29:43.253Z,98393.53
2019-06-08T10:32:09.290Z,98390.50
2019-06-08T10:34:33.818Z,98386.61
2019-06-08T10:37:03.375Z,98392.72
2019-06-08T10:39:28.248Z,98381.62
2019-06-08T10:41:51.894Z,98390.48
2019-06-08T10:44:18.711Z,98374.14
2019-06-08T10:46:44.345Z,98397.02
2019-06-08T10:49:13.916Z,98393.30
2019-06-08T10:51:34.564Z,98405.89
2019-06-08T10:53:59.867Z,98411.72
2019-06-08T10:56:24.209Z,98412.27
2019-06-08T10:58:49.771Z,98399.44
2019-06-08T11:01:18.813Z,98408.20
2019-06-08T11:03:43.680Z,98402.23
2019-06-08T11:06:13.108Z,98399.36
2019-06-08T11:08:38.868Z,98411.95
2019-06-08T11:11:03.005Z,98412.02
2019-06-08T11:13:28.889Z,98410.26
2019-06-08T11:15:58.045Z,98402.17
2019-06-08T11:18:21.899Z,98416.45
2019-06-08T11:20:47.910Z,98422.33
2019-06-08T11:23:13.484Z,98412.30
2019-06-08T11:25:37.905Z,98415.72
2019-06-08T11:28:03.489Z,98409.25
2019-06-08T11:30:30.579Z,98405.97
2019-06-08T11:32:53.985Z,98413.59
2019-06-08T11:35:18.233Z,98407.48
2019-06-08T11:37:43.107Z,98421.95
2019-06-08T11:40:29.578Z,98395.30
2019-06-08T11:42:55.568Z,98421.73
2019-06-08T11:45:21.614Z,98414.65
2019-06-08T11:47:49.266Z,98416.62
2019-06-08T11:50:14.932Z,98406.70
2019-06-08T11:52:40.526Z,98380.60
2019-06-08T11:55:11.214Z,98414.47
2019-06-08T11:57:34.699Z,98404.02
2019-06-08T12:02:24.409Z,98420.77
2019-06-08T12:04:49.362Z,98407.30
2019-06-08T12:07:16.639Z,98408.14
2019-06-08T12:09:42.178Z,98406.49
2019-06-08T12:12:15.422Z,98400.03
2019-06-08T12:14:37.713Z,98405.14
2019-06-08T12:17:03.432Z,98383.73
2019-06-08T12:19:31.415Z,98405.56
2019-06-08T12:21:58.006Z,98411.47
2019-06-08T12:24:38.502Z,98394.22
2019-06-08T12:26:59.056Z,98388.53
2019-06-08T12:29:18.927Z,98396.66
2019-06-08T12:31:43.110Z,98400.77
2019-06-08T12:34:07.282Z,98402.25
2019-06-08T12:36:31.991Z,98414.33
2019-06-08T12:39:03.407Z,98399.76
2019-06-08T12:41:31.518Z,98387.88
2019-06-08T12:43:54.987Z,98397.53
2019-06-08T12:46:21.379Z,98402.13
2019-06-08T12:48:44.903Z,98400.27
2019-06-08T12:51:11.579Z,98410.55
2019-06-08T12:53:38.147Z,98404.70
2019-06-08T12:56:03.994Z,98400.37
2019-06-08T12:58:29.541Z,98398.52
2019-06-08T13:00:53.633Z,98404.42
2019-06-08T13:03:18.782Z,98406.48
2019-06-08T13:05:46.437Z,98402.52
2019-06-08T13:08:13.647Z,98402.00
2019-06-08T13:10:38.342Z,98402.11
2019-06-08T13:13:02.608Z,98401.09
2019-06-08T13:15:30.988Z,98398.97
2019-06-08T13:17:54.971Z,98411.92
2019-06-08T13:20:22.427Z,98415.78
2019-06-08T13:22:48.200Z,98399.20
2019-06-08T13:25:25.884Z,98410.00
2019-06-08T13:27:39.065Z,98413.59
2019-06-08T13:30:03.259Z,98409.34
2019-06-08T13:32:28.586Z,98423.57
2019-06-08T13:34:53.483Z,98414.21
2019-06-08T13:37:21.684Z,98411.06
2019-06-08T13:39:47.713Z,98398.78
2019-06-08T13:42:13.492Z,98407.66
2019-06-08T13:44:39.467Z,98404.83
2019-06-08T13:47:07.618Z,98414.34
2019-06-08T13:49:34.935Z,98412.79
2019-06-08T13:51:59.806Z,98408.31
2019-06-08T13:54:24.384Z,98395.98
2019-06-08T13:56:50.675Z,98401.55
2019-06-08T13:59:19.230Z,98391.28
2019-06-08T14:01:41.673Z,98397.08
2019-06-08T14:04:08.789Z,98380.35
2019-06-08T14:06:38.045Z,98386.63
2019-06-08T14:09:03.758Z,98393.69
2019-06-08T14:11:28.317Z,98387.55
2019-06-08T14:13:55.174Z,98401.80
2019-06-08T14:16:21.551Z,98375.03
2019-06-08T14:18:44.984Z,98396.25
2019-06-08T14:21:09.178Z,98403.14
2019-06-08T14:23:38.688Z,98390.01
2019-06-08T14:26:03.984Z,98393.39
2019-06-08T14:28:29.002Z,98388.84
2019-06-08T14:30:55.517Z,98391.94
2019-06-08T14:33:24.116Z,98393.55
2019-06-08T14:35:45.065Z,98390.78
2019-06-08T14:38:09.329Z,98398.16
2019-06-08T14:40:33.579Z,98395.50
2019-06-08T14:43:05.371Z,98404.37
2019-06-08T14:45:32.725Z,98401.08
2019-06-08T14:47:58.831Z,98393.95
2019-06-08T14:50:28.863Z,98401.20
2019-06-08T14:52:51.405Z,98410.55
2019-06-08T14:55:18.282Z,98405.04
2019-06-08T14:57:41.776Z,98408.50
2019-06-08T15:00:12.199Z,98407.06
2019-06-08T15:02:34.626Z,98418.88
2019-06-08T15:04:58.873Z,98414.00
2019-06-08T15:07:25.354Z,98412.69
2019-06-08T15:09:50.747Z,98412.86
2019-06-08T15:12:17.893Z,98424.05
2019-06-08T15:14:45.080Z,98411.79
2019-06-08T15:17:10.868Z,98412.79
2019-06-08T15:19:37.455Z,98430.95
2019-06-08T15:22:03.970Z,98413.45
2019-06-08T15:24:32.303Z,98415.82
2019-06-08T15:26:58.155Z,98407.19
2019-06-08T15:29:24.948Z,98414.85
2019-06-08T15:31:50.219Z,98415.62
2019-06-08T15:34:14.280Z,98424.97
2019-06-08T15:36:38.561Z,98411.38
2019-06-08T15:39:03.681Z,98411.62
2019-06-08T15:41:29.896Z,98406.48
2019-06-08T15:43:53.476Z,98421.13
2019-06-08T15:46:19.847Z,98409.33
2019-06-08T15:48:43.794Z,98419.61
2019-06-08T15:51:08.017Z,98417.13
2019-06-08T15:53:34.329Z,98423.33
2019-06-08T15:55:58.491Z,98407.91
2019-06-08T15:58:24.865Z,98405.42
2019-06-08T16:00:49.176Z,98404.47
2019-06-08T16:03:13.388Z,98409.25
2019-06-08T16:05:38.775Z,98410.14
2019-06-08T16:08:04.238Z,98407.89
2019-06-08T16:10:30.266Z,98414.58
2019-06-08T16:12:55.715Z,98404.37
2019-06-08T16:15:21.028Z,98409.80
2019-06-08T16:17:45.047Z,98410.03
2019-06-08T16:20:09.313Z,98412.17
2019-06-08T16:22:33.940Z,98402.77
2019-06-08T16:24:58.133Z,98400.03
2019-06-08T16:27:22.269Z,98408.35
2019-06-08T16:29:48.788Z,98404.65
2019-06-08T16:32:15.452Z,98396.92
2019-06-08T16:34:43.339Z,98407.91
2019-06-08T16:37:10.839Z,98390.78
2019-06-08T16:39:36.242Z,98395.39
2019-06-08T16:42:02.773Z,98395.70
2019-06-08T16:44:32.231Z,98402.69
2019-06-08T16:46:57.605Z,98409.66
2019-06-08T16:49:23.018Z,98406.64
2019-06-08T16:51:47.910Z,98419.75
2019-06-08T16:54:12.321Z,98399.58
2019-06-08T16:56:40.278Z,98398.63
2019-06-08T16:59:05.656Z,98394.52
2019-06-08T17:01:30.882Z,98396.88
2019-06-08T17:03:55.205Z,98396.02
2019-06-08T17:06:19.583Z,98400.75
2019-06-08T17:08:43.652Z,98398.30
2019-06-08T17:11:11.092Z,98400.11
2019-06-08T17:13:38.137Z,98401.87
2019-06-08T17:16:03.258Z,98407.25
2019-06-08T17:18:38.155Z,98394.18
2019-06-08T17:21:02.671Z,98404.86
2019-06-08T17:23:28.641Z,98414.30
2019-06-08T17:25:55.512Z,98416.06
2019-06-08T17:28:21.399Z,98417.47
2019-06-08T17:30:47.688Z,98424.80
2019-06-08T17:33:12.351Z,98422.91
2019-06-08T17:35:38.071Z,98420.37
2019-06-08T17:38:02.230Z,98424.86
2019-06-08T17:40:28.174Z,98422.27
2019-06-08T17:42:52.642Z,98428.47
2019-06-08T17:45:19.195Z,98429.97
2019-06-08T17:47:45.934Z,98439.41
2019-06-08T17:50:10.691Z,98429.47
2019-06-08T17:52:35.921Z,98439.80
2019-06-08T17:55:02.854Z,98429.27
2019-06-08T17:57:42.364Z,98426.16
2019-06-08T17:59:57.050Z,98435.89
2019-06-08T18:02:29.129Z,98416.84
2019-06-08T18:04:52.298Z,98433.47
2019-06-08T18:07:20.165Z,98434.81
2019-06-08T18:09:48.341Z,98432.02
2019-06-08T18:12:18.334Z,98436.86
2019-06-08T18:14:47.826Z,98439.42
2019-06-08T18:17:13.917Z,98442.88
2019-06-08T18:19:43.153Z,98440.88
2019-06-08T18:22:15.091Z,98447.37
2019-06-08T18:24:34.527Z,98447.09
2019-06-08T18:26:59.695Z,98440.68
2019-06-08T18:29:24.741Z,98448.65
2019-06-08T18:31:50.391Z,98447.34
2019-06-08T18:34:23.259Z,98444.29
2019-06-08T18:36:50.570Z,98445.05
2019-06-08T18:39:18.031Z,98446.08
2019-06-08T18:41:43.805Z,98450.20
2019-06-08T18:44:08.498Z,98447.88
2019-06-08T18:46:32.710Z,98449.67
2019-06-08T18:48:57.916Z,98450.95
2019-06-08T18:51:21.496Z,98453.73
2019-06-08T18:54:00.836Z,98459.04
2019-06-08T18:56:11.848Z,98463.36
2019-06-08T18:58:37.725Z,98474.88
2019-06-08T19:01:03.141Z,98462.58
2019-06-08T19:03:28.854Z,98472.06
2019-06-08T19:05:52.534Z,98470.53
2019-06-08T19:08:18.479Z,98474.08
2019-06-08T19:10:44.060Z,98475.40
2019-06-08T19:13:08.185Z,98477.73
2019-06-08T19:15:41.939Z,98479.55
2019-06-08T19:18:02.909Z,98489.19
2019-06-08T19:20:28.415Z,98479.01
2019-06-08T19:22:54.344Z,98481.11
2019-06-08T19:25:18.568Z,98495.50
2019-06-08T19:27:47.536Z,98484.17
2019-06-08T19:30:11.820Z,98504.09
2019-06-08T19:32:38.896Z,98485.88
2019-06-08T19:35:07.219Z,98494.33
2019-06-08T19:37:32.888Z,98489.45
2019-06-08T19:39:57.682Z,98493.83
2019-06-08T19:42:35.752Z,98500.70
2019-06-08T19:44:57.596Z,98497.23
2019-06-08T19:47:12.148Z,98500.17
2019-06-08T19:49:35.712Z,98512.23
2019-06-08T19:51:59.658Z,98515.31
2019-06-08T19:54:24.821Z,98525.70
2019-06-08T19:56:54.343Z,98524.53
2019-06-08T19:59:14.985Z,98533.28
2019-06-08T20:01:41.462Z,98537.14
2019-06-08T20:04:07.365Z,98539.95
2019-06-08T20:06:33.352Z,98535.90
2019-06-08T20:08:58.393Z,98537.63
2019-06-08T20:11:23.739Z,98545.58
2019-06-08T20:13:50.456Z,98544.89
2019-06-08T20:16:17.405Z,98546.91
2019-06-08T20:18:43.912Z,98548.18
2019-06-08T20:21:10.352Z,98558.73
2019-06-08T20:23:38.088Z,98549.16
2019-06-08T20:26:01.891Z,98550.70
2019-06-08T20:28:28.219Z,98546.77
2019-06-08T20:31:01.525Z,98537.86
2019-06-08T20:33:27.267Z,98541.72
2019-06-08T20:35:53.903Z,98550.63
2019-06-08T20:38:17.796Z,98553.92
2019-06-08T20:40:43.964Z,98558.00
2019-06-08T20:43:08.730Z,98557.67
2019-06-08T20:45:32.479Z,98562.80
2019-06-08T20:47:58.229Z,98558.16
2019-06-08T20:50:22.393Z,98553.69
2019-06-08T20:52:49.268Z,98563.59
2019-06-08T20:55:13.873Z,98554.30
2019-06-08T20:57:38.832Z,98557.47
2019-06-08T21:00:08.424Z,98561.24
2019-06-08T21:02:31.656Z,98557.77
2019-06-08T21:04:56.330Z,98555.45
2019-06-08T21:07:19.985Z,98556.11
2019-06-08T21:09:50.696Z,98558.82
2019-06-08T21:12:12.946Z,98563.34
2019-06-08T21:14:37.970Z,98565.57
2019-06-08T21:17:01.633Z,98569.79
2019-06-08T21:19:25.209Z,98571.36
2019-06-08T21:21:51.979Z,98563.72
2019-06-08T21:24:17.351Z,98581.15
2019-06-08T21:26:40.664Z,98578.15
2019-06-08T21:29:04.267Z,98587.98
2019-06-08T21:31:28.542Z,98584.42
2019-06-08T21:33:54.536Z,98589.06
2019-06-08T21:36:18.316Z,98583.84
2019-06-08T21:38:41.822Z,98589.65
2019-06-08T21:41:08.342Z,98585.47
2019-06-08T21:43:31.996Z,98580.97
2019-06-08T21:46:00.858Z,98577.38
2019-06-08T21:48:23.123Z,98587.47
2019-06-08T21:50:50.063Z,98582.30
2019-06-08T21:53:18.105Z,98576.17
2019-06-08T21:55:41.805Z,98580.80
2019-06-08T21:58:05.330Z,98581.58
2019-06-08T22:00:39.488Z,98591.64
2019-06-08T22:03:00.234Z,98590.42
2019-06-08T22:05:23.899Z,98589.19
2019-06-08T22:07:48.487Z,98591.80
2019-06-08T22:10:14.531Z,98592.42
2019-06-08T22:12:40.623Z,98586.22
2019-06-08T22:15:07.713Z,98604.35
2019-06-08T22:17:40.782Z,98595.03
2019-06-08T22:20:08.170Z,98604.16
2019-06-08T22:22:31.848Z,98602.33
2019-06-08T22:24:55.468Z,98603.94
2019-06-08T22:27:19.017Z,98596.49
2019-06-08T22:29:42.548Z,98603.80
2019-06-08T22:32:07.739Z,98601.91
2019-06-08T22:34:31.374Z,98607.94
2019-06-08T22:36:56.634Z,98609.06
2019-06-08T22:39:24.159Z,98607.81
2019-06-08T22:41:51.394Z,98615.27
2019-06-08T22:44:17.717Z,98614.17
2019-06-08T22:46:47.880Z,98618.80
2019-06-08T22:49:15.142Z,98618.75
2019-06-08T22:51:38.417Z,98626.19
2019-06-08T22:54:02.735Z,98624.66
2019-06-08T22:56:32.661Z,98623.94
2019-06-08T22:59:00.548Z,98625.51
2019-06-08T23:01:23.724Z,98621.92
2019-06-08T23:03:50.839Z,98634.28
2019-06-08T23:06:17.873Z,98628.86
2019-06-08T23:08:41.409Z,98620.20
2019-06-08T23:11:07.644Z,98627.20
2019-06-08T23:13:30.256Z,98624.41
2019-06-08T23:15:55.246Z,98625.96
2019-06-08T23:18:19.074Z,98637.76
2019-06-08T23:20:42.634Z,98637.23
2019-06-08T23:23:08.632Z,98648.35
2019-06-08T23:25:32.566Z,98651.66
2019-06-08T23:27:56.277Z,98642.23
2019-06-08T23:30:20.893Z,98647.27
2019-06-08T23:32:48.336Z,98640.66
2019-06-08T23:35:13.178Z,98639.19
2019-06-08T23:37:37.812Z,98641.86
2019-06-08T23:40:02.200Z,98645.41
2019-06-08T23:42:27.326Z,98638.62
2019-06-08T23:44:52.065Z,98629.70
2019-06-08T23:47:17.831Z,98640.70
2019-06-08T23:49:40.904Z,98632.62
2019-06-08T23:52:06.326Z,98642.64
2019-06-08T23:54:30.713Z,98646.05
2019-06-08T23:56:54.276Z,98645.27
2019-06-08T23:59:17.904Z,98641.53
